Time;durP1;ratioP1;P1;durP2;ratioP2;P2;SDS_P1;SDS_P2;PMS_P1;PMS_P2;Temp;Humidity;BMP_temperature;BMP_pressure;BME280_temperature;BME280_humidity;BME280_pressure;Samples;Min_cycle;Max_cycle;Signal;HPM_P1;HPM_P2
2023/04/08 00:01:49;;;;;;;8.00;7.30;;;;;;;9.14;68.79;95669.19;6214669;23;20263;-88
2023/04/08 00:04:15;;;;;;;7.83;7.13;;;;;;;9.09;68.90;95665.50;6216370;23;20182;-87
2023/04/08 00:06:43;;;;;;;7.57;6.70;;;;;;;9.03;69.96;95672.13;6216468;23;20200;-88
2023/04/08 00:09:15;;;;;;;7.43;6.73;;;;;;;9.02;69.87;95664.56;6215645;23;20166;-86
2023/04/08 00:11:48;;;;;;;7.47;6.77;;;;;;;9.03;69.63;95667.00;6215105;23;20202;-89
2023/04/08 00:14:16;;;;;;;7.57;6.80;;;;;;;8.99;69.80;95665.72;6215645;23;20158;-89
2023/04/08 00:16:46;;;;;;;7.60;6.80;;;;;;;8.99;69.35;95670.84;6216142;23;20174;-88
2023/04/08 00:19:15;;;;;;;7.80;7.03;;;;;;;8.92;70.31;95673.25;6215399;23;20161;-87
2023/04/08 00:21:47;;;;;;;7.63;6.73;;;;;;;8.89;70.04;95675.34;6215058;23;20205;-88
2023/04/08 00:24:18;;;;;;;6.93;6.23;;;;;;;8.84;70.37;95669.91;6214872;23;20252;-88
2023/04/08 00:26:49;;;;;;;6.97;5.90;;;;;;;8.83;70.90;95668.31;6214852;23;20178;-86
2023/04/08 00:29:18;;;;;;;7.67;6.90;;;;;;;8.85;70.50;95671.53;6214898;23;20165;-87
2023/04/08 00:31:47;;;;;;;7.23;6.27;;;;;;;8.87;71.01;95674.69;6214907;23;20202;-87
2023/04/08 00:34:14;;;;;;;7.23;6.30;;;;;;;8.89;70.45;95676.16;6214344;23;20208;-88
2023/04/08 00:36:40;;;;;;;6.60;6.00;;;;;;;8.87;70.57;95684.97;6214440;23;20184;-87
2023/04/08 00:39:10;;;;;;;6.63;6.00;;;;;;;8.87;70.67;95679.84;6214107;23;20181;-88
2023/04/08 00:41:42;;;;;;;6.60;6.00;;;;;;;8.87;70.69;95680.63;6214288;23;20239;-88
2023/04/08 00:44:11;;;;;;;7.07;6.03;;;;;;;8.83;71.09;95684.53;6213783;23;20162;-88
2023/04/08 00:46:44;;;;;;;6.17;5.57;;;;;;;8.75;71.65;95681.16;6212802;23;20173;-87
2023/04/08 00:49:28;;;;;;;;;;;;;;;;;;;;;
2023/04/08 00:51:55;;;;;;;6.63;5.70;;;;;;;8.68;72.06;95685.31;6213434;23;20276;-87
2023/04/08 00:54:26;;;;;;;6.87;5.70;;;;;;;8.69;72.35;95677.47;6213718;23;20179;-88
2023/04/08 00:56:55;;;;;;;6.13;5.53;;;;;;;8.69;71.67;95684.34;6214462;23;20158;-88
2023/04/08 00:59:25;;;;;;;6.50;5.70;;;;;;;8.72;71.82;95689.16;6213918;23;20173;-88
2023/04/08 01:02:05;;;;;;;5.77;5.20;;;;;;;8.66;72.33;95680.34;6212552;23;20194;-87
2023/04/08 01:04:44;;;;;;;7.77;5.60;;;;;;;8.69;71.60;95676.66;6213869;23;20173;-87
2023/04/08 01:07:17;;;;;;;6.00;5.40;;;;;;;8.55;72.61;95673.78;6213467;23;20212;-87
2023/04/08 01:09:57;;;;;;;6.33;5.70;;;;;;;8.54;72.99;95669.63;6213983;23;20158;-88
2023/04/08 01:12:30;;;;;;;6.23;5.23;;;;;;;8.48;73.46;95670.25;6213213;23;20201;-89
2023/04/08 01:15:03;;;;;;;5.27;4.77;;;;;;;8.47;73.66;95675.53;6213368;23;20168;-89
2023/04/08 01:18:06;;;;;;;5.50;4.87;;;;;;;8.40;74.23;95672.03;6214240;23;20169;-88
2023/04/08 01:20:52;;;;;;;6.77;5.13;;;;;;;8.41;74.36;95674.44;6211156;23;20180;-88
2023/04/08 01:23:25;;;;;;;5.57;5.00;;;;;;;8.44;73.86;95673.31;6214221;23;20201;-89
2023/04/08 01:25:53;;;;;;;5.30;4.80;;;;;;;8.44;73.83;95670.75;6213102;23;20200;-87
2023/04/08 01:28:22;;;;;;;5.40;4.87;;;;;;;8.37;74.26;95675.72;6212896;23;20230;-87
2023/04/08 01:30:50;;;;;;;5.93;5.33;;;;;;;8.37;74.09;95680.06;6214362;23;20185;-87
2023/04/08 01:33:21;;;;;;;6.47;5.70;;;;;;;8.37;74.52;95670.59;6167102;23;1112926;-89
2023/04/08 01:35:53;;;;;;;6.13;5.13;;;;;;;8.25;75.43;95669.28;6214859;23;20166;-88
2023/04/08 01:38:24;;;;;;;5.50;5.00;;;;;;;8.27;74.58;95673.28;6215106;23;20162;-88
2023/04/08 01:40:58;;;;;;;6.00;5.40;;;;;;;8.30;74.97;95672.16;6214885;23;20162;-88
2023/04/08 01:43:36;;;;;;;6.37;5.63;;;;;;;8.35;74.25;95675.06;6214579;23;20185;-87
2023/04/08 01:46:03;;;;;;;5.70;5.20;;;;;;;8.30;74.15;95670.38;6214615;23;20162;-87
2023/04/08 01:48:30;;;;;;;6.37;5.60;;;;;;;8.26;74.72;95674.25;6214691;23;20252;-87
2023/04/08 01:51:04;;;;;;;6.03;5.37;;;;;;;8.22;75.10;95672.16;6215527;23;20463;-87
2023/04/08 01:53:37;;;;;;;5.43;4.77;;;;;;;8.12;75.81;95674.88;6215306;23;20177;-89
2023/04/08 01:56:12;;;;;;;5.30;4.80;;;;;;;8.05;76.64;95671.34;6216296;23;20213;-89
2023/04/08 01:58:42;;;;;;;6.23;5.37;;;;;;;8.08;76.43;95671.00;6215844;23;20212;-88
2023/04/08 02:01:12;;;;;;;5.63;5.00;;;;;;;8.12;75.64;95677.44;6215153;23;20629;-87
2023/04/08 02:03:46;;;;;;;6.40;5.40;;;;;;;8.17;75.40;95669.28;6217251;23;20231;-87
2023/04/08 02:06:16;;;;;;;6.43;5.17;;;;;;;8.19;75.48;95682.75;6217184;23;20565;-89
2023/04/08 02:08:43;;;;;;;5.97;5.13;;;;;;;8.15;75.85;95673.75;6216142;23;20162;-87
2023/04/08 02:11:11;;;;;;;5.67;5.03;;;;;;;8.12;75.73;95674.88;6215919;23;20177;-89
2023/04/08 02:13:40;;;;;;;6.77;5.20;;;;;;;8.10;75.97;95674.22;6215986;23;20186;-88
2023/04/08 02:16:20;;;;;;;6.07;5.47;;;;;;;8.10;75.86;95671.66;6217071;23;20180;-87
2023/04/08 02:19:01;;;;;;;6.53;5.27;;;;;;;8.14;75.75;95678.06;6216613;23;20188;-87
2023/04/08 02:21:34;;;;;;;5.87;5.27;;;;;;;8.15;75.46;95678.88;6215176;23;20248;-88
2023/04/08 02:24:04;;;;;;;5.63;5.13;;;;;;;8.09;76.40;95674.38;6216468;23;20161;-88
2023/04/08 02:26:37;;;;;;;5.73;5.07;;;;;;;8.09;76.00;95676.94;6216762;23;20205;-87
2023/04/08 02:29:11;;;;;;;6.00;5.40;;;;;;;8.07;76.62;95681.47;6216070;23;20170;-88
2023/04/08 02:31:40;;;;;;;7.27;5.40;;;;;;;8.05;76.69;95673.13;6217067;23;20248;-88
2023/04/08 02:34:22;;;;;;;;;;;;;;;;;;;;;
2023/04/08 02:36:50;;;;;;;6.33;5.37;;;;;;;8.04;76.67;95674.88;6216517;23;20217;-89
2023/04/08 02:39:17;;;;;;;5.90;5.40;;;;;;;8.01;76.57;95680.31;6216333;23;20177;-88
2023/04/08 02:41:45;;;;;;;5.90;5.40;;;;;;;7.98;77.01;95673.75;6216711;23;20680;-88
2023/04/08 02:44:11;;;;;;;6.60;5.37;;;;;;;7.99;76.79;95671.97;6216897;23;20584;-87
2023/04/08 02:46:38;;;;;;;6.13;5.53;;;;;;;8.03;76.19;95673.28;6216278;23;20189;-88
2023/04/08 02:49:07;;;;;;;6.20;5.40;;;;;;;8.05;76.22;95675.69;6214992;23;20169;-88
2023/04/08 02:51:34;;;;;;;5.67;5.17;;;;;;;8.02;76.43;95676.00;6215963;23;20197;-89
2023/04/08 02:54:00;;;;;;;6.60;6.00;;;;;;;8.01;76.65;95674.38;6216527;23;20272;-87
2023/04/08 02:56:29;;;;;;;5.93;5.37;;;;;;;7.97;76.89;95679.03;6216652;23;20243;-88
2023/04/08 02:58:57;;;;;;;6.43;5.83;;;;;;;7.95;77.27;95673.25;6215616;23;20646;-86
2023/04/08 03:01:23;;;;;;;6.47;5.87;;;;;;;7.90;77.53;95675.47;6214672;23;20740;-87
2023/04/08 03:03:55;;;;;;;6.60;6.00;;;;;;;7.85;77.90;95675.97;6216673;23;20174;-87
2023/04/08 03:06:25;;;;;;;6.43;5.80;;;;;;;7.81;78.24;95677.22;6217497;23;20161;-87
2023/04/08 03:08:52;;;;;;;7.10;6.40;;;;;;;7.80;78.38;95675.63;6212601;23;20212;-86
2023/04/08 03:11:18;;;;;;;6.90;6.00;;;;;;;7.79;78.41;95680.91;6212918;23;20248;-86
2023/04/08 03:13:45;;;;;;;6.83;6.23;;;;;;;7.79;78.62;95680.91;6212604;23;20198;-86
2023/04/08 03:16:13;;;;;;;6.53;5.87;;;;;;;7.82;78.23;95691.66;6212622;23;20177;-87
2023/04/08 03:18:40;;;;;;;6.10;5.53;;;;;;;7.85;78.31;95690.53;6212802;23;20184;-87
2023/04/08 03:21:06;;;;;;;6.30;5.67;;;;;;;7.85;78.59;95687.97;6212833;23;20181;-87
2023/04/08 03:23:43;;;;;;;6.93;6.23;;;;;;;7.85;78.73;95683.66;6213129;23;20174;-87
2023/04/08 03:26:12;;;;;;;7.47;6.67;;;;;;;7.88;78.28;95683.34;6213150;23;20164;-86
2023/04/08 03:28:38;;;;;;;6.67;5.97;;;;;;;7.92;77.95;95682.06;6212695;23;20178;-87
2023/04/08 03:31:05;;;;;;;6.70;6.10;;;;;;;7.89;78.88;95689.25;6212676;23;20224;-87
2023/04/08 03:33:35;;;;;;;7.17;6.03;;;;;;;7.93;78.18;95682.84;6212464;23;20193;-86
2023/04/08 03:36:04;;;;;;;7.40;6.57;;;;;;;7.90;78.96;95681.41;6212985;23;20620;-87
2023/04/08 03:38:34;;;;;;;8.07;6.80;;;;;;;7.91;79.09;95684.78;6213161;23;20193;-87
2023/04/08 03:41:00;;;;;;;7.47;6.47;;;;;;;7.87;79.53;95686.06;6213579;23;20174;-87
2023/04/08 03:43:34;;;;;;;8.43;6.47;;;;;;;7.87;79.48;95686.88;6213019;23;20173;-87
2023/04/08 03:46:02;;;;;;;7.50;6.60;;;;;;;7.89;79.33;95691.81;6212691;23;20312;-87
2023/04/08 03:48:32;;;;;;;7.13;6.43;;;;;;;7.93;79.67;95693.09;6212517;23;20256;-86
2023/04/08 03:51:02;;;;;;;7.73;6.93;;;;;;;7.98;79.58;95703.69;6212632;23;20186;-86
2023/04/08 03:53:31;;;;;;;7.67;6.60;;;;;;;8.01;79.28;95700.03;6212822;23;20764;-86
2023/04/08 03:56:03;;;;;;;8.10;7.30;;;;;;;7.98;80.27;95699.38;6212919;23;20197;-87
2023/04/08 03:58:30;;;;;;;7.50;6.80;;;;;;;8.00;80.21;95698.41;6212055;23;20162;-87
2023/04/08 04:00:57;;;;;;;7.93;7.13;;;;;;;7.98;80.01;95699.38;6211405;23;20205;-87
2023/04/08 04:03:29;;;;;;;9.73;7.40;;;;;;;7.99;80.13;95702.75;6212294;23;20194;-87
2023/04/08 04:06:08;;;;;;;8.43;7.10;;;;;;;8.01;80.27;95697.47;6213045;23;20162;-87
2023/04/08 04:08:41;;;;;;;8.07;7.27;;;;;;;8.02;81.06;95705.00;6211736;23;20177;-86
2023/04/08 04:11:11;;;;;;;8.03;7.23;;;;;;;8.06;80.66;95702.94;6212132;23;20513;-87
2023/04/08 04:13:42;;;;;;;7.67;6.97;;;;;;;8.07;81.14;95710.47;6212036;23;20190;-87
2023/04/08 04:16:11;;;;;;;8.47;7.63;;;;;;;8.14;80.40;95708.84;6212589;23;20833;-86
2023/04/08 04:18:40;;;;;;;8.57;7.67;;;;;;;8.07;81.42;95712.22;6212328;23;20177;-88
2023/04/08 04:21:12;;;;;;;8.50;7.30;;;;;;;8.06;80.91;95716.56;6210895;23;20181;-87
2023/04/08 04:23:40;;;;;;;8.67;7.33;;;;;;;8.10;80.89;95719.56;6212138;23;20245;-88
2023/04/08 04:26:10;;;;;;;8.73;7.83;;;;;;;8.12;81.05;95717.66;6211986;23;20731;-86
2023/04/08 04:28:37;;;;;;;9.20;8.03;;;;;;;8.05;81.51;95720.06;6212041;23;20173;-87
2023/04/08 04:31:06;;;;;;;9.37;8.33;;;;;;;8.07;81.65;95725.03;6211949;23;20184;-87
2023/04/08 04:33:33;;;;;;;9.20;8.30;;;;;;;8.11;81.55;95724.56;6212316;23;20208;-87
2023/04/08 04:35:59;;;;;;;9.20;8.30;;;;;;;8.17;80.89;95723.94;6212344;23;20261;-87
2023/04/08 04:38:33;;;;;;;8.90;8.00;;;;;;;8.20;80.97;95726.19;6211399;23;20188;-88
2023/04/08 04:41:05;;;;;;;9.23;8.30;;;;;;;8.22;81.25;95726.03;6211701;23;20177;-87
2023/04/08 04:43:37;;;;;;;10.13;8.90;;;;;;;8.27;80.38;95728.94;6211834;23;20160;-87
2023/04/08 04:46:10;;;;;;;10.20;9.20;;;;;;;8.30;80.54;95721.69;6212674;23;20158;-87
2023/04/08 04:48:37;;;;;;;8.50;7.70;;;;;;;8.38;80.07;95733.75;6212296;23;20492;-87
2023/04/08 04:51:09;;;;;;;10.93;8.83;;;;;;;8.39;80.32;95735.38;6213165;23;20558;-87
2023/04/08 04:53:51;;;;;;;9.60;8.70;;;;;;;8.39;80.46;95744.84;6213499;23;20236;-89
2023/04/08 04:56:21;;;;;;;9.63;8.63;;;;;;;8.39;80.34;95745.63;6213906;23;20162;-87
2023/04/08 04:58:47;;;;;;;10.47;9.37;;;;;;;8.45;80.48;95744.22;6212074;23;20548;-87
2023/04/08 05:01:16;;;;;;;9.97;8.97;;;;;;;8.47;80.28;95740.50;6211570;23;20520;-87
2023/04/08 05:03:43;;;;;;;10.53;9.53;;;;;;;8.43;81.46;95741.00;6211707;23;20552;-87
2023/04/08 05:06:15;;;;;;;12.43;9.70;;;;;;;8.47;81.03;95745.63;6212243;23;20227;-87
2023/04/08 05:08:55;;;;;;;11.77;9.20;;;;;;;8.45;82.40;95744.22;6211668;23;20157;-86
2023/04/08 05:11:24;;;;;;;10.60;9.60;;;;;;;8.48;81.76;95739.53;6211986;23;20157;-87
2023/04/08 05:13:55;;;;;;;11.63;10.43;;;;;;;8.49;82.39;95742.91;6211095;23;20201;-87
2023/04/08 05:16:29;;;;;;;11.67;10.47;;;;;;;8.57;81.57;95745.47;6212125;23;20177;-86
2023/04/08 05:18:58;;;;;;;11.17;10.07;;;;;;;8.62;81.87;95746.63;6211060;23;20517;-86
2023/04/08 05:21:27;;;;;;;10.90;9.80;;;;;;;8.65;81.67;95741.16;6211722;23;20194;-87
2023/04/08 05:23:57;;;;;;;11.23;10.13;;;;;;;8.68;82.14;95752.06;6211665;23;20256;-87
2023/04/08 05:26:24;;;;;;;11.90;10.23;;;;;;;8.66;82.21;95747.06;6211540;23;20162;-86
2023/04/08 05:28:51;;;;;;;11.50;10.27;;;;;;;8.61;82.56;95744.22;6210728;23;20651;-87
2023/04/08 05:31:20;;;;;;;11.50;10.40;;;;;;;8.66;82.30;95745.31;6211809;23;20201;-86
2023/04/08 05:33:48;;;;;;;11.63;10.40;;;;;;;8.62;82.83;95746.63;6212944;23;20193;-88
2023/04/08 05:36:17;;;;;;;12.50;10.43;;;;;;;8.64;82.81;95747.25;6213129;23;20252;-87
2023/04/08 05:38:45;;;;;;;12.23;10.90;;;;;;;8.76;81.55;95752.06;6213418;23;20187;-86
2023/04/08 05:41:14;;;;;;;11.60;10.40;;;;;;;8.84;82.04;95750.31;6213588;23;20185;-87
2023/04/08 05:43:43;;;;;;;12.27;10.97;;;;;;;8.89;81.84;95744.66;6213771;23;20511;-87
2023/04/08 05:46:10;;;;;;;12.60;10.43;;;;;;;8.92;81.22;95745.16;6213577;23;20668;-86
2023/04/08 05:48:43;;;;;;;12.90;10.10;;;;;;;8.94;81.35;95745.00;6213531;23;20170;-88
2023/04/08 05:51:13;;;;;;;12.57;10.97;;;;;;;8.93;81.13;95749.31;6214178;23;20162;-87
2023/04/08 05:53:42;;;;;;;12.17;10.93;;;;;;;8.98;81.29;95748.84;6214104;23;20178;-87
2023/04/08 05:56:11;;;;;;;11.60;10.50;;;;;;;9.00;80.94;95749.50;6213122;23;20257;-87
2023/04/08 05:58:39;;;;;;;12.53;11.20;;;;;;;9.01;80.83;95751.09;6213145;23;20185;-87
2023/04/08 06:01:08;;;;;;;11.97;10.80;;;;;;;9.04;81.51;95755.91;6212719;23;20185;-88
2023/04/08 06:03:34;;;;;;;13.40;11.23;;;;;;;9.07;80.99;95753.00;6213742;23;20177;-88
2023/04/08 06:06:03;;;;;;;11.97;10.77;;;;;;;9.12;81.30;95758.44;6213312;23;20185;-87
2023/04/08 06:08:29;;;;;;;11.43;10.33;;;;;;;9.22;80.54;95755.72;6214059;23;20181;-87
2023/04/08 06:10:56;;;;;;;12.10;10.90;;;;;;;9.22;80.62;95763.44;6214570;23;20180;-87
2023/04/08 06:13:25;;;;;;;12.27;11.07;;;;;;;9.23;80.86;95759.88;6214431;23;20197;-87
2023/04/08 06:15:58;;;;;;;10.97;9.87;;;;;;;9.28;80.20;95762.75;6214234;23;20710;-86
2023/04/08 06:18:25;;;;;;;12.10;10.80;;;;;;;9.28;80.28;95773.81;6214220;23;20158;-88
2023/04/08 06:20:51;;;;;;;11.70;10.53;;;;;;;9.24;80.27;95774.31;6213980;23;20177;-87
2023/04/08 06:23:19;;;;;;;12.27;11.07;;;;;;;9.23;81.45;95770.97;6213759;23;20279;-87
2023/04/08 06:25:45;;;;;;;12.40;11.10;;;;;;;9.27;81.03;95767.09;6213856;23;20264;-87
2023/04/08 06:28:11;;;;;;;12.50;11.20;;;;;;;9.30;81.57;95776.25;6213527;23;20188;-87
2023/04/08 06:30:41;;;;;;;11.83;10.73;;;;;;;9.26;80.99;95772.38;6213293;23;20204;-87
2023/04/08 06:33:09;;;;;;;12.33;10.97;;;;;;;9.27;80.53;95774.00;6212884;23;20197;-87
2023/04/08 06:35:36;;;;;;;11.63;10.43;;;;;;;9.26;81.62;95780.09;6213644;23;20177;-87
2023/04/08 06:38:04;;;;;;;11.60;10.47;;;;;;;9.27;81.71;95779.13;6212903;23;20201;-86
2023/04/08 06:40:33;;;;;;;12.47;10.47;;;;;;;9.22;82.45;95778.84;6213151;23;20177;-87
2023/04/08 06:43:00;;;;;;;11.47;10.37;;;;;;;9.24;82.07;95780.25;6212509;23;20197;-87
2023/04/08 06:45:27;;;;;;;11.37;10.27;;;;;;;9.24;81.60;95787.16;6213416;23;20185;-87
2023/04/08 06:47:55;;;;;;;11.90;10.73;;;;;;;9.13;81.98;95790.88;6213200;23;20184;-87
2023/04/08 06:50:25;;;;;;;13.83;11.47;;;;;;;9.07;81.68;95791.50;6213575;23;20173;-87
2023/04/08 06:52:59;;;;;;;13.30;11.07;;;;;;;9.11;81.78;95792.00;6213081;23;20201;-87
2023/04/08 06:55:26;;;;;;;12.73;11.43;;;;;;;9.16;81.43;95789.75;6213624;23;20173;-86
2023/04/08 06:57:54;;;;;;;12.20;10.83;;;;;;;9.20;81.28;95793.63;6212900;23;20184;-87
2023/04/08 07:00:21;;;;;;;13.57;11.40;;;;;;;9.22;81.08;95799.41;6213113;23;20178;-87
2023/04/08 07:02:49;;;;;;;11.73;10.53;;;;;;;9.31;80.84;95790.69;6211505;23;20193;-87
2023/04/08 07:05:18;;;;;;;12.83;11.33;;;;;;;9.32;80.61;95798.25;6213256;23;20182;-86
2023/04/08 07:07:46;;;;;;;13.40;12.03;;;;;;;9.31;80.35;95796.63;6212930;23;20184;-87
2023/04/08 07:10:16;;;;;;;13.07;11.67;;;;;;;9.25;80.60;95806.75;6212917;23;20180;-86
2023/04/08 07:12:45;;;;;;;13.27;12.00;;;;;;;9.22;80.04;95796.81;6213017;23;20564;-87
2023/04/08 07:15:17;;;;;;;13.33;12.00;;;;;;;9.22;80.33;95807.91;6212685;23;20181;-86
2023/04/08 07:17:46;;;;;;;13.43;12.13;;;;;;;9.20;80.59;95809.03;6212889;23;20256;-86
2023/04/08 07:20:14;;;;;;;12.27;11.07;;;;;;;9.20;80.01;95807.25;6212325;23;20209;-88
2023/04/08 07:22:42;;;;;;;13.30;12.00;;;;;;;9.23;79.46;95811.28;6212453;23;20193;-87
2023/04/08 07:25:12;;;;;;;13.57;12.20;;;;;;;9.12;79.64;95812.38;6214248;23;20628;-87
2023/04/08 07:27:38;;;;;;;13.23;11.93;;;;;;;9.13;79.11;95810.63;6212228;23;20185;-87
2023/04/08 07:30:16;;;;;;;13.57;12.23;;;;;;;9.15;79.02;95814.63;6212268;23;20178;-87
2023/04/08 07:32:47;;;;;;;12.70;11.50;;;;;;;9.13;79.46;95819.13;6211654;23;20205;-87
2023/04/08 07:35:13;;;;;;;14.17;12.77;;;;;;;9.23;78.72;95822.34;6212294;23;20252;-87
2023/04/08 07:37:40;;;;;;;13.37;12.07;;;;;;;9.30;77.79;95818.16;6212132;23;20502;-86
2023/04/08 07:40:07;;;;;;;12.87;11.57;;;;;;;9.39;76.69;95824.09;6211120;23;20184;-87
2023/04/08 07:42:35;;;;;;;13.60;12.20;;;;;;;9.43;76.08;95829.72;6211513;23;20913;-88
2023/04/08 07:45:02;;;;;;;12.53;11.17;;;;;;;9.48;73.67;95828.25;6211999;23;20201;-87
2023/04/08 07:47:28;;;;;;;12.77;11.47;;;;;;;9.52;72.85;95832.09;6211767;23;20212;-87
2023/04/08 07:49:55;;;;;;;12.20;11.00;;;;;;;9.58;72.83;95834.03;6211950;23;20181;-87
2023/04/08 07:52:21;;;;;;;12.23;10.93;;;;;;;9.53;69.81;95830.31;6212459;23;20534;-87
2023/04/08 07:54:48;;;;;;;12.00;10.70;;;;;;;9.47;67.01;95833.53;6211528;23;20204;-87
2023/04/08 07:57:14;;;;;;;11.10;9.93;;;;;;;9.45;66.24;95835.47;6212046;23;20822;-89
2023/04/08 07:59:42;;;;;;;10.67;9.60;;;;;;;9.50;64.18;95831.44;6212091;23;20174;-88
2023/04/08 08:02:08;;;;;;;10.93;9.37;;;;;;;9.51;63.22;95827.91;6210825;23;20198;-87
2023/04/08 08:04:38;;;;;;;10.13;9.10;;;;;;;9.49;61.55;95823.91;6212457;23;20174;-86
2023/04/08 08:07:04;;;;;;;9.43;8.53;;;;;;;9.57;61.00;95836.75;6211620;23;20177;-87
2023/04/08 08:09:31;;;;;;;10.00;9.07;;;;;;;9.54;60.10;95834.50;6211483;23;20173;-87
2023/04/08 08:11:57;;;;;;;10.13;9.13;;;;;;;9.47;59.75;95836.91;6211348;23;20235;-87
2023/04/08 08:14:25;;;;;;;9.47;8.57;;;;;;;9.46;60.77;95837.06;6211640;23;20193;-86
2023/04/08 08:16:53;;;;;;;10.77;9.60;;;;;;;9.45;61.79;95840.59;6211667;23;20184;-86
2023/04/08 08:19:20;;;;;;;10.50;9.50;;;;;;;9.39;63.52;95842.09;6211858;23;20178;-87
2023/04/08 08:21:46;;;;;;;10.40;9.40;;;;;;;9.46;64.27;95844.78;6210807;23;20190;-86
2023/04/08 08:24:13;;;;;;;10.83;9.83;;;;;;;9.49;64.94;95840.13;6211930;23;20177;-87
2023/04/08 08:26:39;;;;;;;11.13;9.80;;;;;;;9.53;65.09;95841.41;6212289;23;20223;-88
2023/04/08 08:29:07;;;;;;;10.70;9.60;;;;;;;9.50;64.98;95846.88;6211648;23;20185;-87
2023/04/08 08:31:33;;;;;;;10.73;9.53;;;;;;;9.47;65.32;95841.25;6211544;23;20193;-89
2023/04/08 08:34:01;;;;;;;10.13;9.13;;;;;;;9.45;65.35;95851.69;6212199;23;20190;-87
2023/04/08 08:36:28;;;;;;;10.77;9.73;;;;;;;9.38;63.96;95850.75;6212601;23;20196;-87
2023/04/08 08:38:54;;;;;;;10.17;9.17;;;;;;;9.38;64.20;95850.75;6213458;23;20177;-87
2023/04/08 08:41:21;;;;;;;47.87;39.07;;;;;;;9.27;63.09;95853.63;6213275;23;20643;-87
2023/04/08 08:43:48;;;;;;;25.43;21.33;;;;;;;9.25;63.02;95856.38;6213781;23;20169;-88
2023/04/08 08:46:17;;;;;;;10.80;9.70;;;;;;;9.15;61.49;95863.44;6212963;23;20200;-86
2023/04/08 08:48:43;;;;;;;10.37;9.37;;;;;;;9.05;62.64;95861.97;6211706;23;20181;-87
2023/04/08 08:51:12;;;;;;;10.33;9.37;;;;;;;9.09;63.76;95870.97;6211493;23;20200;-87
2023/04/08 08:53:43;;;;;;;11.10;9.27;;;;;;;9.12;63.88;95866.31;6211856;23;20220;-87
2023/04/08 08:56:11;;;;;;;10.67;9.60;;;;;;;9.12;64.56;95874.03;6211545;23;20667;-86
2023/04/08 08:58:38;;;;;;;11.90;10.50;;;;;;;9.23;64.61;95868.59;6211161;23;20664;-87
2023/04/08 09:01:43;;;;;;;15.00;13.40;;;;;;;9.30;67.28;95873.88;6210613;23;20177;-87
2023/04/08 09:04:13;;;;;;;13.43;12.07;;;;;;;9.20;68.23;95874.06;6192705;23;20224;-88
2023/04/08 09:06:41;;;;;;;10.97;9.93;;;;;;;9.03;69.43;95880.16;6212866;23;20177;-88
2023/04/08 09:09:09;;;;;;;11.00;9.90;;;;;;;8.96;69.12;95882.53;6213794;23;20173;-87
2023/04/08 09:11:37;;;;;;;10.60;9.23;;;;;;;8.96;69.22;95884.31;6215089;23;20205;-87
2023/04/08 09:14:05;;;;;;;10.37;9.37;;;;;;;8.66;69.67;95891.63;6214094;23;20687;-86
2023/04/08 09:16:32;;;;;;;15.10;9.87;;;;;;;8.54;71.46;95890.31;6214021;23;20504;-87
2023/04/08 09:19:09;;;;;;;11.20;10.00;;;;;;;8.59;71.42;95897.56;6213528;23;20663;-87
2023/04/08 09:21:35;;;;;;;11.13;9.77;;;;;;;8.68;70.77;95890.66;6213899;23;20554;-87
2023/04/08 09:24:03;;;;;;;10.93;9.83;;;;;;;8.69;70.14;95890.50;6213864;23;20185;-86
2023/04/08 09:26:29;;;;;;;11.37;10.27;;;;;;;8.57;70.07;95889.19;6216914;23;20177;-88
2023/04/08 09:29:04;;;;;;;14.20;12.60;;;;;;;8.56;70.23;95892.72;6216948;23;20177;-88
2023/04/08 09:31:31;;;;;;;14.93;12.13;;;;;;;8.55;67.74;95896.25;6216857;23;20193;-89
2023/04/08 09:34:01;;;;;;;14.27;10.70;;;;;;;8.61;67.57;95891.31;6216671;23;20276;-87
2023/04/08 09:36:27;;;;;;;13.80;12.00;;;;;;;8.63;68.66;95893.72;6216123;23;20177;-88
2023/04/08 09:38:57;;;;;;;12.43;10.37;;;;;;;8.72;67.51;95892.75;6214930;23;20262;-89
2023/04/08 09:41:31;;;;;;;11.03;10.03;;;;;;;8.69;65.59;95899.97;6216087;23;20173;-87
2023/04/08 09:44:00;;;;;;;11.33;10.00;;;;;;;8.70;65.53;95894.69;6216052;23;20158;-87
2023/04/08 09:46:34;;;;;;;9.90;8.90;;;;;;;8.66;64.62;95898.50;6217929;23;20181;-88
2023/04/08 09:49:06;;;;;;;10.17;9.17;;;;;;;8.74;65.21;95902.88;6217127;23;20157;-89
2023/04/08 09:51:36;;;;;;;10.70;9.70;;;;;;;8.66;64.85;95894.19;6217460;23;20248;-88
2023/04/08 09:54:12;;;;;;;10.10;9.07;;;;;;;8.70;65.40;95896.44;6216377;23;20248;-87
2023/04/08 09:56:50;;;;;;;10.40;9.37;;;;;;;8.71;65.25;95903.19;6216201;23;20192;-89
2023/04/08 09:59:26;;;;;;;10.03;9.03;;;;;;;8.71;65.10;95890.34;6216350;23;20181;-89
2023/04/08 10:01:55;;;;;;;10.67;9.13;;;;;;;8.79;63.66;95896.31;6214452;23;20248;-88
2023/04/08 10:04:24;;;;;;;37.97;30.07;;;;;;;8.75;66.83;95892.44;6215880;23;20221;-88
2023/04/08 10:06:57;;;;;;;23.13;18.67;;;;;;;8.92;65.37;95880.44;6216634;23;20177;-90
2023/04/08 10:09:23;;;;;;;11.93;10.73;;;;;;;8.93;64.03;95882.06;6216371;23;20488;-90
2023/04/08 10:11:52;;;;;;;11.60;10.50;;;;;;;9.04;64.52;95881.75;6216461;23;20205;-88
2023/04/08 10:14:20;;;;;;;11.43;10.17;;;;;;;9.08;65.08;95880.44;6214631;23;20287;-90
2023/04/08 10:16:49;;;;;;;10.50;9.50;;;;;;;9.22;65.10;95881.59;6215547;23;20227;-89
2023/04/08 10:19:45;;;;;;;11.93;10.67;;;;;;;9.31;64.92;95878.84;6216375;23;20204;-88
2023/04/08 10:22:46;;;;;;;12.10;10.60;;;;;;;9.40;63.98;95878.88;6131614;23;20201;-88
2023/04/08 10:25:32;;;;;;;11.60;10.50;;;;;;;9.41;63.82;95877.91;6216684;23;20208;-90
2023/04/08 10:28:25;;;;;;;13.07;11.30;;;;;;;9.50;63.43;95882.06;6215075;23;20210;-89
2023/04/08 10:30:56;;;;;;;11.47;10.43;;;;;;;9.58;63.71;95879.47;6216519;23;20558;-87
2023/04/08 10:33:25;;;;;;;12.03;10.93;;;;;;;9.62;63.67;95878.19;6215807;23;20216;-89
2023/04/08 10:35:57;;;;;;;12.60;11.40;;;;;;;9.67;62.66;95871.59;6215945;23;20252;-89
2023/04/08 10:38:27;;;;;;;12.47;10.80;;;;;;;9.76;62.23;95876.72;6216754;23;20168;-88
2023/04/08 10:40:54;;;;;;;12.67;10.90;;;;;;;9.78;62.16;95874.78;6216233;23;20249;-89
2023/04/08 10:43:24;;;;;;;15.33;11.40;;;;;;;9.77;62.35;95874.00;6216745;23;20190;-87
2023/04/08 10:45:54;;;;;;;13.30;11.80;;;;;;;9.72;63.03;95878.81;6216981;23;20173;-88
2023/04/08 10:48:28;;;;;;;14.70;13.20;;;;;;;9.62;62.10;95876.41;6216454;23;20187;-87
2023/04/08 10:50:56;;;;;;;16.60;14.60;;;;;;;9.55;62.04;95872.91;6216307;23;20161;-87
2023/04/08 10:53:30;;;;;;;14.97;12.93;;;;;;;9.51;62.38;95875.94;6216411;23;20280;-88
2023/04/08 10:56:05;;;;;;;13.33;11.93;;;;;;;9.39;63.05;95870.34;6213974;23;20205;-86
2023/04/08 10:58:33;;;;;;;12.30;11.10;;;;;;;9.40;63.03;95878.88;6213758;23;20227;-87
2023/04/08 11:01:03;;;;;;;12.93;11.70;;;;;;;9.26;63.75;95878.53;6212876;23;20512;-87
2023/04/08 11:03:32;;;;;;;13.30;11.83;;;;;;;9.20;64.86;95868.09;6214062;23;20727;-87
2023/04/08 11:06:00;;;;;;;12.93;11.63;;;;;;;9.23;65.31;95878.06;6213865;23;20208;-90
2023/04/08 11:08:27;;;;;;;13.37;11.90;;;;;;;9.22;65.37;95879.84;6213761;23;20177;-89
2023/04/08 11:10:55;;;;;;;12.77;11.53;;;;;;;9.18;65.71;95877.75;6213373;23;20173;-87
2023/04/08 11:13:22;;;;;;;12.40;11.23;;;;;;;9.16;66.25;95879.66;6212062;23;20201;-87
2023/04/08 11:15:50;;;;;;;13.10;11.80;;;;;;;9.22;66.31;95884.16;6212991;23;20193;-87
2023/04/08 11:18:17;;;;;;;12.90;11.50;;;;;;;9.10;67.03;95888.81;6213291;23;20184;-87
2023/04/08 11:20:44;;;;;;;12.50;11.30;;;;;;;8.92;67.01;95881.25;6212771;23;20239;-88
2023/04/08 11:23:13;;;;;;;13.67;12.37;;;;;;;8.88;67.62;95884.28;6212874;23;20197;-87
2023/04/08 11:25:40;;;;;;;11.93;10.73;;;;;;;8.90;67.48;95880.59;6213724;23;20183;-87
2023/04/08 11:28:07;;;;;;;13.40;12.07;;;;;;;8.99;68.49;95876.28;6212358;23;20177;-88
2023/04/08 11:30:34;;;;;;;14.03;12.63;;;;;;;9.07;68.10;95883.97;6214871;23;20200;-87
2023/04/08 11:33:02;;;;;;;37.40;31.00;;;;;;;8.98;69.12;95884.94;6214278;23;20216;-87
2023/04/08 11:35:29;;;;;;;17.77;15.97;;;;;;;8.99;68.43;95882.22;6213592;23;20204;-87
2023/04/08 11:37:56;;;;;;;14.10;12.80;;;;;;;9.08;68.58;95882.22;6212896;23;20174;-87
2023/04/08 11:40:23;;;;;;;12.80;11.30;;;;;;;9.05;68.26;95890.22;6213637;23;20177;-88
2023/04/08 11:42:50;;;;;;;11.63;10.63;;;;;;;9.06;68.25;95889.28;6212697;23;20251;-88
2023/04/08 11:45:20;;;;;;;12.00;10.60;;;;;;;9.10;67.52;95888.81;6213111;23;20637;-87
2023/04/08 11:47:47;;;;;;;12.67;11.47;;;;;;;9.04;67.80;95884.31;6214196;23;20181;-88
2023/04/08 11:50:23;;;;;;;13.80;12.43;;;;;;;8.98;68.64;95887.53;6212358;23;20672;-88